Time;durP1;ratioP1;P1;durP2;ratioP2;P2;SDS_P1;SDS_P2;PMS_P1;PMS_P2;Temp;Humidity;BMP_temperature;BMP_pressure;BME280_temperature;BME280_humidity;BME280_pressure;Samples;Min_cycle;Max_cycle;Signal;HPM_P1;HPM_P2
2021/07/18 00:02:12;;;;;;;;;11.75;8.50;;;;;20.30;64.18;101591.97;4973106;28;73264;-60
2021/07/18 00:04:38;;;;;;;;;10.00;8.50;;;;;20.26;64.15;101588.00;4973291;28;66634;-60
2021/07/18 00:07:04;;;;;;;;;8.00;8.00;;;;;20.21;64.41;101593.03;4973278;28;66594;-60
2021/07/18 00:09:29;;;;;;;;;9.50;7.75;;;;;20.19;64.87;101583.53;4973954;28;46285;-60
2021/07/18 00:11:55;;;;;;;;;8.00;7.00;;;;;20.15;64.63;101586.56;4973182;28;70234;-60
2021/07/18 00:14:20;;;;;;;;;8.75;7.50;;;;;20.13;64.99;101582.41;4973160;28;69045;-60
2021/07/18 00:16:45;;;;;;;;;10.50;8.00;;;;;20.11;65.02;101579.09;4973535;28;54810;-60
2021/07/18 00:19:11;;;;;;;;;12.50;9.00;;;;;20.07;64.95;101581.25;4972678;28;70458;-60
2021/07/18 00:21:37;;;;;;;;;8.75;8.25;;;;;20.03;65.32;101585.28;4973601;28;45186;-61
2021/07/18 00:24:03;;;;;;;;;9.50;8.50;;;;;20.00;65.18;101577.59;4974336;28;45285;-60
2021/07/18 00:26:28;;;;;;;;;12.75;7.50;;;;;19.96;65.13;101585.13;4973482;28;45476;-60
2021/07/18 00:28:54;;;;;;;;;9.00;9.00;;;;;19.95;65.36;101587.97;4972663;28;74571;-60
2021/07/18 00:31:19;;;;;;;;;9.25;8.00;;;;;19.93;65.39;101584.63;4972854;28;66259;-60
2021/07/18 00:33:44;;;;;;;;;12.00;8.25;;;;;19.87;65.88;101580.81;4972821;28;69587;-59
2021/07/18 00:36:10;;;;;;;;;8.50;8.00;;;;;19.85;65.74;101585.47;4972927;28;62632;-60
2021/07/18 00:38:35;;;;;;;;;9.50;9.00;;;;;19.85;65.76;101586.31;4972542;28;72777;-60
2021/07/18 00:41:00;;;;;;;;;10.75;8.50;;;;;19.86;65.71;101579.13;4972983;28;58634;-60
2021/07/18 00:43:26;;;;;;;;;9.75;9.75;;;;;19.86;65.45;101587.13;4972875;28;65082;-60
2021/07/18 00:45:55;;;;;;;;;8.00;8.00;;;;;19.82;65.79;101581.34;4973613;28;45358;-60
2021/07/18 00:48:21;;;;;;;;;10.50;9.25;;;;;19.82;65.98;101578.66;4972341;28;46382;-60
2021/07/18 00:50:46;;;;;;;;;10.00;9.50;;;;;19.81;65.75;101576.16;4972611;28;69639;-60
2021/07/18 00:53:12;;;;;;;;;7.75;7.50;;;;;19.78;65.97;101580.00;4955315;28;64528;-60
2021/07/18 00:55:40;;;;;;;;;9.25;7.50;;;;;19.75;65.95;101574.16;4975563;28;45361;-60
2021/07/18 00:58:05;;;;;;;;;10.75;10.00;;;;;19.73;66.05;101571.69;4975118;28;46165;-60
2021/07/18 01:00:30;;;;;;;;;8.75;7.50;;;;;19.72;66.10;101560.19;4975549;28;65330;-60
2021/07/18 01:02:56;;;;;;;;;12.00;7.00;;;;;19.71;66.10;101569.19;4975553;28;68680;-61
2021/07/18 01:05:21;;;;;;;;;11.00;9.00;;;;;19.70;66.43;101569.38;4975594;28;65395;-60
2021/07/18 01:07:46;;;;;;;;;12.25;9.00;;;;;19.66;66.35;101570.72;4974219;28;72114;-60
2021/07/18 01:10:12;;;;;;;;;12.00;9.75;;;;;19.62;66.39;101574.72;4974326;28;62927;-60
2021/07/18 01:12:37;;;;;;;;;9.50;9.50;;;;;19.58;66.67;101574.25;4977913;28;45697;-60
2021/07/18 01:15:03;;;;;;;;;12.25;8.50;;;;;19.54;66.51;101578.25;4974086;28;70427;-59
2021/07/18 01:17:29;;;;;;;;;12.25;8.75;;;;;19.51;66.56;101578.59;4975982;28;45323;-59
2021/07/18 01:19:54;;;;;;;;;12.00;9.00;;;;;19.47;66.57;101577.25;4974926;28;45257;-60
2021/07/18 01:22:19;;;;;;;;;10.00;10.00;;;;;19.45;66.75;101568.59;4975375;28;60191;-59
2021/07/18 01:24:45;;;;;;;;;8.75;7.25;;;;;19.41;66.99;101573.41;4958052;28;64859;-60
2021/07/18 01:27:10;;;;;;;;;9.75;7.00;;;;;19.38;67.12;101573.75;4957594;28;72134;-60
2021/07/18 01:29:35;;;;;;;;;9.50;7.50;;;;;19.35;67.15;101574.94;4974042;28;64449;-60
2021/07/18 01:32:01;;;;;;;;;8.50;7.50;;;;;19.33;67.09;101576.94;4976015;28;45348;-60
2021/07/18 01:34:26;;;;;;;;;7.00;7.00;;;;;19.31;67.52;101573.59;4975036;28;70424;-60
2021/07/18 01:36:52;;;;;;;;;9.50;8.75;;;;;19.27;67.33;101574.94;4974613;28;45992;-60
2021/07/18 01:39:18;;;;;;;;;10.00;10.00;;;;;19.23;67.14;101581.59;4974077;28;61638;-60
2021/07/18 01:41:43;;;;;;;;;11.25;9.75;;;;;19.21;67.35;101578.28;4975930;28;45411;-60
2021/07/18 01:44:09;;;;;;;;;7.25;7.00;;;;;19.18;67.45;101578.59;4975909;28;45426;-60
2021/07/18 01:46:34;;;;;;;;;7.75;7.75;;;;;19.16;67.42;101575.28;4974457;28;46007;-60
2021/07/18 01:49:00;;;;;;;;;10.75;8.50;;;;;19.12;67.15;101570.28;4975810;28;45359;-60
2021/07/18 01:51:26;;;;;;;;;9.00;9.00;;;;;19.10;67.38;101566.13;4974577;28;45419;-60
2021/07/18 01:53:54;;;;;;;;;11.75;9.50;;;;;19.07;67.66;101562.00;4975773;28;45493;-60
2021/07/18 01:56:20;;;;;;;;;8.00;7.25;;;;;19.04;67.87;101562.31;4977726;27;45435;-60
2021/07/18 01:58:50;;;;;;;;;10.25;7.00;;;;;19.01;67.32;101560.00;4975357;28;46637;-60
2021/07/18 02:01:15;;;;;;;;;8.00;7.50;;;;;19.00;67.58;101561.00;4975704;28;45441;-60
2021/07/18 02:03:41;;;;;;;;;9.75;8.25;;;;;18.97;67.71;101561.31;4974446;28;45545;-61
2021/07/18 02:06:07;;;;;;;;;10.75;7.50;;;;;18.96;67.48;101557.00;4975362;28;45464;-59
2021/07/18 02:08:32;;;;;;;;;11.00;8.00;;;;;18.96;67.68;101557.00;4975714;28;45387;-60
2021/07/18 02:10:57;;;;;;;;;10.25;9.25;;;;;18.93;67.91;101558.09;4974716;28;68485;-60
2021/07/18 02:13:23;;;;;;;;;8.25;6.50;;;;;18.90;68.10;101560.28;4974809;28;63253;-60
2021/07/18 02:15:48;;;;;;;;;9.50;7.75;;;;;18.87;67.84;101558.78;4974715;28;67070;-60
2021/07/18 02:18:14;;;;;;;;;9.00;7.75;;;;;18.87;67.92;101564.09;4974619;28;64785;-60
2021/07/18 02:20:39;;;;;;;;;10.75;7.25;;;;;18.86;68.08;101554.44;4975108;28;48804;-60
2021/07/18 02:23:04;;;;;;;;;12.00;6.50;;;;;18.87;67.82;101560.63;4975388;28;47594;-60
2021/07/18 02:25:30;;;;;;;;;6.75;6.25;;;;;18.86;67.97;101562.44;4975137;28;51706;-61
2021/07/18 02:27:55;;;;;;;;;8.00;8.00;;;;;18.89;67.67;101566.59;4975394;28;45297;-61
2021/07/18 02:30:22;;;;;;;;;8.25;8.00;;;;;18.88;67.71;101557.78;4975563;28;45218;-61
2021/07/18 02:32:49;;;;;;;;;8.50;8.00;;;;;18.87;67.60;101558.78;4975379;28;45573;-61
2021/07/18 02:35:14;;;;;;;;;8.00;6.25;;;;;18.87;67.86;101552.63;4957863;28;46258;-61
2021/07/18 02:37:40;;;;;;;;;8.75;8.00;;;;;18.85;67.99;101552.78;4975235;28;45362;-61
2021/07/18 02:40:06;;;;;;;;;7.50;7.25;;;;;18.83;67.80;101557.44;4975383;28;45408;-60
2021/07/18 02:42:31;;;;;;;;;7.25;7.00;;;;;18.79;67.95;101556.13;4975420;28;45283;-61
2021/07/18 02:44:57;;;;;;;;;12.50;8.50;;;;;18.75;67.92;101552.94;4973894;28;72099;-60
2021/07/18 02:47:22;;;;;;;;;9.00;8.50;;;;;18.73;68.11;101549.63;4975134;28;45330;-60
2021/07/18 02:49:48;;;;;;;;;10.00;7.00;;;;;18.72;67.88;101541.81;4974527;28;61158;-61
2021/07/18 02:52:13;;;;;;;;;7.00;7.00;;;;;18.71;68.10;101546.28;4974422;28;64278;-61
2021/07/18 02:54:38;;;;;;;;;9.50;9.00;;;;;18.67;68.05;101537.81;4974978;28;45521;-61
2021/07/18 02:57:04;;;;;;;;;11.25;8.00;;;;;18.64;68.10;101546.13;4974683;28;55144;-61
2021/07/18 02:59:29;;;;;;;;;12.50;9.00;;;;;18.63;68.31;101538.28;4974741;28;47639;-60
2021/07/18 03:01:59;;;;;;;;;9.75;9.50;;;;;18.60;68.08;101539.47;4974167;28;69672;-60
2021/07/18 03:04:24;;;;;;;;;9.00;7.75;;;;;18.58;68.14;101540.59;4974925;28;45449;-61
2021/07/18 03:06:50;;;;;;;;;11.25;8.75;;;;;18.49;68.65;101545.94;4974899;28;45419;-61
2021/07/18 03:09:15;;;;;;;;;8.50;6.50;;;;;18.47;68.51;101539.94;4974230;28;63797;-61
2021/07/18 03:11:40;;;;;;;;;8.25;8.00;;;;;18.45;68.47;101541.94;4974196;28;60765;-60
2021/07/18 03:14:06;;;;;;;;;7.50;6.75;;;;;18.42;68.66;101542.28;4974707;28;46576;-61
2021/07/18 03:16:31;;;;;;;;;7.75;6.75;;;;;18.41;68.78;101537.09;4973830;28;66707;-61
2021/07/18 03:18:57;;;;;;;;;9.50;8.00;;;;;18.38;68.61;101540.94;4972280;28;63296;-60
2021/07/18 03:21:22;;;;;;;;;9.25;6.50;;;;;18.33;68.48;101546.72;4973839;28;58575;-60
2021/07/18 03:23:47;;;;;;;;;10.00;10.00;;;;;18.32;68.82;101544.22;4974660;28;45379;-60
2021/07/18 03:26:13;;;;;;;;;9.75;8.00;;;;;18.31;68.88;101555.88;4973821;28;67313;-61
2021/07/18 03:28:38;;;;;;;;;9.00;9.00;;;;;18.28;68.95;101540.22;4973868;28;61391;-61
2021/07/18 03:31:03;;;;;;;;;8.75;8.75;;;;;18.20;69.25;101539.22;4973943;28;63328;-61
2021/07/18 03:33:29;;;;;;;;;10.75;8.00;;;;;18.16;69.10;101543.19;4974576;28;45259;-61
2021/07/18 03:35:54;;;;;;;;;7.75;7.00;;;;;18.13;69.27;101545.34;4973443;28;71774;-60
2021/07/18 03:38:19;;;;;;;;;7.75;6.75;;;;;18.10;69.55;101543.81;4973495;28;68304;-61
2021/07/18 03:40:45;;;;;;;;;10.50;9.25;;;;;18.07;69.69;101542.34;4974446;28;45556;-61
2021/07/18 03:43:10;;;;;;;;;11.50;8.00;;;;;18.05;69.46;101540.81;4973583;28;65895;-60
2021/07/18 03:45:36;;;;;;;;;10.25;8.00;;;;;18.03;69.76;101548.97;4973688;28;65164;-60
2021/07/18 03:48:01;;;;;;;;;8.50;6.25;;;;;18.01;69.62;101545.63;4974497;28;45216;-60
2021/07/18 03:50:26;;;;;;;;;11.25;9.25;;;;;18.01;69.53;101542.97;4973812;28;58322;-61
2021/07/18 03:52:53;;;;;;;;;8.25;8.00;;;;;17.99;69.62;101544.97;4973169;28;75511;-61
2021/07/18 03:55:18;;;;;;;;;7.00;7.00;;;;;17.95;69.58;101546.25;4974271;28;45442;-60
2021/07/18 03:57:44;;;;;;;;;11.25;8.00;;;;;17.93;69.79;101557.06;4974340;28;45424;-61
2021/07/18 04:00:09;;;;;;;;;9.50;8.50;;;;;17.92;69.68;101546.56;4973960;28;47493;-61
2021/07/18 04:02:35;;;;;;;;;10.50;8.75;;;;;17.92;69.48;101558.03;4973959;28;46825;-60
2021/07/18 04:05:00;;;;;;;;;8.50;7.25;;;;;17.89;69.79;101547.72;4974083;28;45380;-60
2021/07/18 04:07:26;;;;;;;;;9.75;6.00;;;;;17.87;69.86;101551.53;4973275;28;64963;-60
2021/07/18 04:09:51;;;;;;;;;7.50;6.50;;;;;17.85;69.80;101551.69;4975917;27;45379;-61
2021/07/18 04:12:16;;;;;;;;;7.25;6.00;;;;;17.85;70.01;101556.16;4971879;28;71732;-60
2021/07/18 04:14:42;;;;;;;;;8.00;8.00;;;;;17.83;69.93;101553.69;4973137;28;68763;-61
2021/07/18 04:17:07;;;;;;;;;8.25;7.00;;;;;17.80;69.91;101557.47;4973688;28;49463;-61
2021/07/18 04:19:32;;;;;;;;;8.50;8.25;;;;;17.76;70.01;101556.13;4973552;28;56494;-61
2021/07/18 04:21:58;;;;;;;;;7.50;7.00;;;;;17.74;70.05;101559.94;4973481;28;45377;-60
2021/07/18 04:24:23;;;;;;;;;8.00;8.00;;;;;17.73;70.05;101563.59;4973762;28;45308;-60
2021/07/18 04:26:49;;;;;;;;;8.00;8.00;;;;;17.71;70.11;101565.56;4973141;28;59008;-61
2021/07/18 04:29:14;;;;;;;;;8.00;8.00;;;;;17.69;70.06;101568.41;4973381;28;65743;-61
2021/07/18 04:31:39;;;;;;;;;6.75;6.00;;;;;17.68;70.06;101564.06;4974654;28;67203;-61
2021/07/18 04:34:05;;;;;;;;;7.25;7.25;;;;;17.65;70.08;101562.56;4974504;28;69495;-60
2021/07/18 04:36:30;;;;;;;;;8.00;7.50;;;;;17.64;70.25;101560.88;4975937;28;65144;-61
2021/07/18 04:38:56;;;;;;;;;10.75;8.00;;;;;17.61;70.31;101566.50;4976437;28;47887;-60
2021/07/18 04:41:22;;;;;;;;;10.25;8.00;;;;;17.61;70.30;101568.34;4976462;28;45244;-60
2021/07/18 04:43:47;;;;;;;;;10.50;9.00;;;;;17.61;70.16;101565.69;4975356;28;45571;-60
2021/07/18 04:46:13;;;;;;;;;9.75;8.25;;;;;17.60;70.31;101570.16;4975747;28;66550;-61
2021/07/18 04:48:38;;;;;;;;;9.50;7.00;;;;;17.60;70.45;101569.34;4975877;28;62161;-60
2021/07/18 04:51:04;;;;;;;;;10.00;7.00;;;;;17.58;70.42;101572.13;4978240;27;46138;-61
2021/07/18 04:53:29;;;;;;;;;12.00;7.00;;;;;17.59;70.06;101567.69;4975795;28;67660;-60
2021/07/18 04:55:55;;;;;;;;;9.50;7.75;;;;;17.58;70.45;101569.47;4978666;28;45431;-61
2021/07/18 04:58:20;;;;;;;;;13.00;10.00;;;;;17.58;70.26;101571.31;4976382;28;45524;-60
2021/07/18 05:00:45;;;;;;;;;12.25;9.75;;;;;17.59;70.33;101568.50;4975507;28;68617;-61
2021/07/18 05:03:11;;;;;;;;;7.75;7.25;;;;;17.62;70.29;101585.97;4975767;28;64543;-61
2021/07/18 05:05:37;;;;;;;;;10.75;7.50;;;;;17.61;70.22;101577.13;4976628;28;45793;-60
2021/07/18 05:08:02;;;;;;;;;8.00;7.25;;;;;17.64;70.17;101586.66;4976463;28;45375;-60
2021/07/18 05:10:28;;;;;;;;;8.50;7.50;;;;;17.66;70.15;101589.97;4976138;28;46105;-60
2021/07/18 05:12:55;;;;;;;;;8.00;6.75;;;;;17.69;70.30;101591.47;4976357;28;45235;-60
2021/07/18 05:15:21;;;;;;;;;8.00;8.00;;;;;17.72;70.17;101591.16;4976424;28;45449;-60
2021/07/18 05:17:47;;;;;;;;;8.75;7.00;;;;;17.76;70.04;101589.84;4976207;28;45195;-61
2021/07/18 05:20:13;;;;;;;;;8.00;7.25;;;;;17.81;70.12;101598.19;4975922;28;48813;-61
2021/07/18 05:22:38;;;;;;;;;9.50;6.00;;;;;17.84;69.83;101602.34;4975564;28;45406;-61
2021/07/18 05:25:05;;;;;;;;;9.00;9.00;;;;;17.86;69.68;101593.25;4973728;28;63895;-61
2021/07/18 05:27:30;;;;;;;;;6.75;6.75;;;;;17.88;69.74;101595.72;4975780;28;45294;-61
2021/07/18 05:29:56;;;;;;;;;10.00;8.00;;;;;17.90;69.79;101591.09;4975069;28;71399;-60
2021/07/18 05:32:21;;;;;;;;;9.00;7.50;;;;;17.89;69.72;101587.59;4975258;28;65680;-60
2021/07/18 05:34:46;;;;;;;;;7.75;7.75;;;;;17.93;69.62;101586.31;4976391;28;45435;-61
2021/07/18 05:37:12;;;;;;;;;6.75;5.25;;;;;17.94;69.64;101587.97;4976059;28;45426;-60
2021/07/18 05:39:37;;;;;;;;;7.75;7.25;;;;;17.98;69.66;101588.47;4974954;28;71423;-61
2021/07/18 05:42:03;;;;;;;;;13.00;8.25;;;;;18.04;69.58;101592.34;4974670;28;70772;-61
2021/07/18 05:44:29;;;;;;;;;9.00;8.00;;;;;18.10;69.19;101597.03;4975972;28;45418;-60
2021/07/18 05:46:54;;;;;;;;;10.75;7.50;;;;;18.16;69.31;101603.53;4975963;28;45471;-60
2021/07/18 05:49:19;;;;;;;;;8.00;6.25;;;;;18.21;69.37;101607.38;4975386;28;60547;-61
2021/07/18 05:51:45;;;;;;;;;8.25;7.25;;;;;18.28;68.86;101601.41;4974871;28;69402;-61
2021/07/18 05:54:10;;;;;;;;;8.25;7.75;;;;;18.33;68.88;101602.59;4975029;28;60784;-60
2021/07/18 05:56:36;;;;;;;;;8.50;7.50;;;;;18.39;68.90;101601.13;4975810;28;45526;-61
2021/07/18 05:59:01;;;;;;;;;6.50;6.25;;;;;18.43;68.49;101601.63;4974246;28;48291;-61
2021/07/18 06:01:27;;;;;;;;;7.25;6.00;;;;;18.54;68.25;101604.00;4974928;28;66607;-60
2021/07/18 06:03:52;;;;;;;;;8.25;8.00;;;;;18.61;68.40;101593.50;4974979;28;65816;-61
2021/07/18 06:06:17;;;;;;;;;6.75;5.00;;;;;18.68;68.06;101591.88;4974981;28;62718;-60
2021/07/18 06:08:43;;;;;;;;;8.75;6.50;;;;;18.75;67.83;101598.22;4974795;28;71525;-61
2021/07/18 06:11:08;;;;;;;;;7.00;6.00;;;;;18.82;67.81;101591.22;4975610;28;45279;-61
2021/07/18 06:13:33;;;;;;;;;5.00;5.00;;;;;18.92;67.65;101598.22;4974782;28;66020;-61
2021/07/18 06:15:59;;;;;;;;;8.00;6.00;;;;;19.02;67.28;101585.63;4974963;28;60067;-61
2021/07/18 06:18:25;;;;;;;;;6.25;5.50;;;;;19.09;67.30;101591.94;4974090;28;45364;-61
2021/07/18 06:20:50;;;;;;;;;6.50;4.75;;;;;19.17;66.52;101587.59;4975351;28;45372;-61
2021/07/18 06:23:15;;;;;;;;;6.00;6.00;;;;;19.24;66.50;101593.94;4975544;28;45777;-59
2021/07/18 06:25:41;;;;;;;;;7.50;6.50;;;;;19.33;66.54;101592.94;4973372;28;67956;-60
2021/07/18 06:28:06;;;;;;;;;8.00;6.75;;;;;19.45;66.52;101592.59;4974629;28;69071;-61
2021/07/18 06:30:31;;;;;;;;;6.25;4.25;;;;;19.57;66.02;101593.91;4974496;28;67429;-61
2021/07/18 06:32:57;;;;;;;;;6.50;5.00;;;;;19.66;65.56;101592.84;4974498;28;62704;-60
2021/07/18 06:35:22;;;;;;;;;7.75;6.25;;;;;19.76;65.44;101598.00;4974325;28;68898;-61
2021/07/18 06:37:47;;;;;;;;;8.25;5.00;;;;;19.88;65.52;101601.13;4975036;28;45301;-60
2021/07/18 06:40:13;;;;;;;;;8.25;5.00;;;;;19.97;64.82;101600.13;4974178;28;73178;-61
2021/07/18 06:42:38;;;;;;;;;5.75;5.00;;;;;20.08;65.19;101600.78;4975433;28;45258;-60
2021/07/18 06:45:04;;;;;;;;;6.75;5.25;;;;;20.21;64.73;101601.03;4975305;28;45511;-60
2021/07/18 06:47:30;;;;;;;;;7.00;5.50;;;;;20.34;64.44;101602.31;4974954;28;46018;-61
2021/07/18 06:49:57;;;;;;;;;6.00;4.25;;;;;20.47;64.50;101605.25;4975141;28;45423;-60
2021/07/18 06:52:22;;;;;;;;;6.25;5.00;;;;;20.60;63.66;101600.16;4972936;28;45372;-61
2021/07/18 06:54:48;;;;;;;;;7.50;7.50;;;;;20.72;63.37;101600.59;4975011;28;45583;-61
2021/07/18 06:57:13;;;;;;;;;6.00;6.00;;;;;20.84;63.51;101603.69;4974613;28;56431;-60
2021/07/18 06:59:38;;;;;;;;;5.50;5.50;;;;;20.94;62.19;101603.44;4974191;28;60724;-60
2021/07/18 07:02:04;;;;;;;;;7.00;5.00;;;;;21.04;62.35;101596.03;4974085;28;65238;-61
2021/07/18 07:04:30;;;;;;;;;7.25;3.75;;;;;21.18;62.02;101602.44;4974923;28;45550;-60
2021/07/18 07:06:55;;;;;;;;;4.00;4.00;;;;;21.30;61.84;101602.81;4972399;28;69587;-60
2021/07/18 07:09:21;;;;;;;;;6.00;4.25;;;;;21.41;61.98;101596.19;4973656;28;45378;-61
2021/07/18 07:11:46;;;;;;;;;4.75;4.75;;;;;21.54;61.47;101610.78;4974139;28;59129;-60
2021/07/18 07:14:11;;;;;;;;;4.50;4.50;;;;;21.66;61.67;101608.50;4974507;28;52368;-60
2021/07/18 07:16:37;;;;;;;;;5.50;4.00;;;;;21.79;60.74;101606.84;4973649;28;71855;-60
2021/07/18 07:19:03;;;;;;;;;3.75;3.75;;;;;21.93;60.42;101609.72;4974527;28;45295;-60
2021/07/18 07:21:28;;;;;;;;;4.25;3.50;;;;;22.07;60.51;101606.19;4973361;28;45395;-60
2021/07/18 07:23:54;;;;;;;;;4.00;3.50;;;;;22.19;59.90;101611.91;4974004;28;64056;-60
2021/07/18 07:26:19;;;;;;;;;4.50;3.25;;;;;22.29;58.61;101602.75;4973729;28;70527;-61
2021/07/18 07:28:45;;;;;;;;;5.00;2.75;;;;;22.37;58.68;101605.31;4974615;28;45240;-61
2021/07/18 07:31:10;;;;;;;;;4.00;3.50;;;;;22.51;58.75;101609.00;4974605;28;45181;-60
2021/07/18 07:33:35;;;;;;;;;6.00;4.00;;;;;22.64;58.63;101605.63;4976412;27;45161;-61
2021/07/18 07:36:02;;;;;;;;;3.25;3.00;;;;;22.74;57.57;101606.16;4974270;28;45232;-60
2021/07/18 07:38:27;;;;;;;;;3.00;2.00;;;;;22.86;57.53;101603.78;4974295;28;45235;-60
2021/07/18 07:40:53;;;;;;;;;3.00;3.00;;;;;22.98;57.33;101604.91;4974429;28;45625;-60
2021/07/18 07:43:18;;;;;;;;;3.75;3.75;;;;;23.09;56.72;101594.72;4974314;28;45623;-60
2021/07/18 07:45:44;;;;;;;;;4.00;4.00;;;;;23.20;56.09;101594.19;4973552;28;64583;-60
2021/07/18 07:48:09;;;;;;;;;6.00;6.00;;;;;23.31;56.31;101595.53;4974267;28;45494;-61
2021/07/18 07:50:34;;;;;;;;;3.00;3.00;;;;;23.43;56.33;101590.44;4973532;28;65512;-61
2021/07/18 07:53:00;;;;;;;;;4.75;4.00;;;;;23.54;55.40;101595.25;4974293;28;45434;-61
2021/07/18 07:55:25;;;;;;;;;4.50;3.00;;;;;23.64;55.48;101596.78;4974187;28;46014;-61
2021/07/18 07:57:51;;;;;;;;;3.75;3.75;;;;;23.76;55.27;101594.34;4972859;28;45986;-60
2021/07/18 08:00:17;;;;;;;;;2.75;2.75;;;;;23.90;55.05;101597.91;4973505;28;61728;-61
2021/07/18 08:02:43;;;;;;;;;4.75;3.00;;;;;24.04;54.35;101598.88;4974291;28;45326;-60
2021/07/18 08:05:08;;;;;;;;;3.00;2.25;;;;;24.18;54.44;101600.56;4974055;28;45398;-60
2021/07/18 08:07:34;;;;;;;;;2.50;2.50;;;;;24.33;53.70;101597.72;4972781;28;45469;-60
2021/07/18 08:09:59;;;;;;;;;2.75;2.75;;;;;24.49;53.50;101601.91;4974062;28;45422;-60
2021/07/18 08:12:25;;;;;;;;;2.00;2.00;;;;;24.64;52.88;101604.41;4973564;28;58139;-60
2021/07/18 08:14:50;;;;;;;;;3.25;3.25;;;;;24.77;52.14;101602.81;4975980;28;46096;-61
2021/07/18 08:17:17;;;;;;;;;3.50;3.00;;;;;24.90;50.74;101597.44;4973069;28;65232;-60
2021/07/18 08:19:42;;;;;;;;;2.00;1.75;;;;;25.01;50.46;101587.94;4973903;28;45256;-60
2021/07/18 08:22:08;;;;;;;;;3.00;3.00;;;;;25.06;50.56;101601.59;4973460;28;45495;-60
2021/07/18 08:24:33;;;;;;;;;2.00;2.00;;;;;25.15;50.48;101594.97;4973616;28;45255;-60
2021/07/18 08:26:59;;;;;;;;;2.00;2.00;;;;;25.26;50.77;101588.13;4973578;28;45326;-60
2021/07/18 08:29:24;;;;;;;;;3.75;2.00;;;;;25.34;50.00;101581.69;4973141;28;61518;-60
2021/07/18 08:31:49;;;;;;;;;4.00;2.00;;;;;25.42;49.57;101588.72;4973794;28;45239;-60
2021/07/18 08:34:15;;;;;;;;;3.75;2.50;;;;;25.50;48.81;101585.81;4973561;28;46022;-60
2021/07/18 08:36:41;;;;;;;;;4.50;3.25;;;;;25.57;48.30;101585.81;4973492;28;45880;-60
2021/07/18 08:39:06;;;;;;;;;2.00;2.00;;;;;25.67;48.37;101585.38;4973768;28;45553;-60
2021/07/18 08:41:32;;;;;;;;;2.00;2.00;;;;;25.78;48.22;101582.84;4971647;28;63378;-60
2021/07/18 08:43:57;;;;;;;;;2.75;2.00;;;;;25.91;47.92;101589.22;4955432;28;61212;-60
2021/07/18 08:46:22;;;;;;;;;2.00;2.00;;;;;26.03;46.92;101573.22;4971800;28;54241;-60
2021/07/18 08:48:48;;;;;;;;;3.00;3.00;;;;;26.15;47.00;101578.81;4973248;28;45443;-61
2021/07/18 08:51:13;;;;;;;;;2.25;2.00;;;;;26.23;47.20;101573.13;4973424;28;45577;-60
2021/07/18 08:53:39;;;;;;;;;3.00;3.00;;;;;26.30;46.75;101573.13;4973234;28;45382;-60
2021/07/18 08:56:04;;;;;;;;;2.50;2.50;;;;;26.36;45.94;101564.97;4971367;28;63283;-60
2021/07/18 08:58:30;;;;;;;;;2.50;2.00;;;;;26.44;46.11;101572.00;4956615;28;57405;-60
2021/07/18 09:00:55;;;;;;;;;2.00;1.50;;;;;26.52;45.33;101577.09;4972094;28;70453;-60
2021/07/18 09:03:20;;;;;;;;;3.50;2.50;;;;;26.63;45.66;101577.47;4972037;28;75593;-60
2021/07/18 09:05:46;;;;;;;;;4.50;4.00;;;;;26.76;45.73;101576.56;4972099;28;66793;-60
2021/07/18 09:08:23;;;;;;;;;3.25;1.25;;;;;26.91;45.17;101579.75;4973167;28;45324;-60
2021/07/18 09:10:48;;;;;;;;;1.00;1.00;;;;;27.04;44.68;101568.03;4973020;28;45568;-60
2021/07/18 09:13:16;;;;;;;;;2.00;1.00;;;;;27.19;44.71;101577.66;4972779;28;49253;-60
2021/07/18 09:15:43;;;;;;;;;1.00;1.00;;;;;27.33;44.04;101576.47;4956784;28;45830;-60
2021/07/18 09:18:22;;;;;;;;;3.50;1.75;;;;;27.47;42.53;101569.06;4976230;28;45349;-61
2021/07/18 09:20:49;;;;;;;;;3.00;2.00;;;;;27.61;42.18;101572.47;4976050;28;45355;-60
2021/07/18 09:23:16;;;;;;;;;1.00;1.00;;;;;27.70;41.80;101564.91;4974786;28;47452;-61
2021/07/18 09:25:42;;;;;;;;;2.00;2.00;;;;;27.80;41.95;101569.75;4975842;28;45738;-60
2021/07/18 09:28:18;;;;;;;;;2.00;2.00;;;;;27.94;41.59;101565.00;4976167;28;45401;-60
2021/07/18 09:30:44;;;;;;;;;3.25;1.00;;;;;28.05;41.44;101560.72;4976061;28;45280;-61
2021/07/18 09:33:20;;;;;;;;;1.50;0.50;;;;;28.12;40.69;101566.88;4974898;28;45290;-61
2021/07/18 09:35:46;;;;;;;;;1.00;1.00;;;;;28.16;40.03;101562.66;4975003;28;45280;-61
2021/07/18 09:38:20;;;;;;;;;0.50;0.50;;;;;28.24;40.01;101556.13;4974728;28;45351;-60
2021/07/18 09:41:02;;;;;;;;;0.50;0.50;;;;;28.34;39.88;101560.97;4975791;28;45386;-60
2021/07/18 09:43:28;;;;;;;;;2.00;2.00;;;;;28.43;39.22;101556.88;4975702;28;48554;-61
2021/07/18 09:46:06;;;;;;;;;1.50;1.50;;;;;28.55;40.10;101560.44;4975523;28;45736;-61
2021/07/18 09:48:44;;;;;;;;;1.25;1.25;;;;;28.71;39.28;101547.28;4958910;28;45245;-61
2021/07/18 09:51:11;;;;;;;;;0.50;0.50;;;;;28.87;38.76;101560.16;4974661;28;45462;-61
2021/07/18 09:53:37;;;;;;;;;1.25;1.25;;;;;28.99;38.13;101553.91;4975855;28;45381;-61
2021/07/18 09:56:10;;;;;;;;;1.50;1.50;;;;;29.10;38.54;101553.09;4975682;28;45265;-61
2021/07/18 09:58:39;;;;;;;;;12.25;9.00;;;;;29.19;37.63;101556.25;4975735;28;45294;-60
2021/07/18 10:01:07;;;;;;;;;2.50;2.50;;;;;29.29;38.69;101558.38;4975663;28;45511;-60
2021/07/18 10:03:33;;;;;;;;;1.50;1.50;;;;;29.40;37.43;101559.47;4975568;28;47465;-61
2021/07/18 10:06:07;;;;;;;;;0.75;0.75;;;;;29.52;37.53;101559.44;4974741;28;65891;-61
2021/07/18 10:08:32;;;;;;;;;1.50;1.50;;;;;29.64;37.35;101562.94;4975718;28;45243;-60
2021/07/18 10:10:57;;;;;;;;;1.50;1.50;;;;;29.76;37.10;101563.69;4975690;28;45493;-60
2021/07/18 10:13:23;;;;;;;;;4.00;1.25;;;;;29.86;35.71;101562.25;4974397;28;72127;-61
2021/07/18 10:15:49;;;;;;;;;1.75;1.75;;;;;29.93;35.93;101562.13;4974605;28;70635;-61
2021/07/18 10:18:14;;;;;;;;;2.00;2.00;;;;;30.01;35.81;101557.19;4975313;28;45403;-61
2021/07/18 10:20:39;;;;;;;;;1.00;1.00;;;;;30.11;35.21;101561.16;4972950;28;72565;-61
2021/07/18 10:23:05;;;;;;;;;1.00;1.00;;;;;30.15;34.44;101538.72;4972942;28;77182;-60
2021/07/18 10:25:30;;;;;;;;;1.25;1.25;;;;;30.19;34.59;101561.56;4956867;28;64170;-61
2021/07/18 10:27:55;;;;;;;;;1.00;1.00;;;;;30.20;34.73;101562.41;4956315;28;50060;-61
2021/07/18 10:30:21;;;;;;;;;1.75;1.00;;;;;30.15;35.43;101552.28;4957093;28;70358;-60
2021/07/18 10:32:48;;;;;;;;;3.75;1.00;;;;;30.17;35.08;101549.34;4975256;28;45461;-61
2021/07/18 10:35:13;;;;;;;;;2.00;2.00;;;;;30.22;35.16;101549.41;4975312;28;46941;-60
2021/07/18 10:37:42;;;;;;;;;1.75;1.75;;;;;30.27;35.46;101551.41;4974170;28;45402;-61
2021/07/18 10:40:17;;;;;;;;;1.50;1.00;;;;;30.29;34.76;101560.91;4974978;28;45208;-61
2021/07/18 10:42:43;;;;;;;;;2.50;2.00;;;;;30.27;34.52;101552.19;4975001;28;46874;-61
2021/07/18 10:45:22;;;;;;;;;2.00;2.00;;;;;30.28;34.94;101548.44;4973955;28;73172;-59
2021/07/18 10:47:58;;;;;;;;;5.25;5.25;;;;;30.35;35.43;101549.09;4975331;28;45241;-59
2021/07/18 10:50:50;;;;;;;;;5.00;4.00;;;;;30.47;35.54;101542.78;4975137;28;45377;-60
2021/07/18 10:53:29;;;;;;;;;3.00;2.75;;;;;30.61;35.53;101543.31;4974906;28;46949;-60
2021/07/18 10:55:55;;;;;;;;;2.50;1.75;;;;;30.72;35.12;101531.56;4974915;28;45222;-62
2021/07/18 10:58:38;;;;;;;;;3.50;2.25;;;;;30.75;34.71;101536.47;4974717;28;45180;-61
2021/07/18 11:01:27;;;;;;;;;2.00;2.00;;;;;30.74;34.72;101540.25;4974531;28;45531;-61
2021/07/18 11:03:53;;;;;;;;;2.25;2.25;;;;;30.75;34.48;101532.94;4973557;28;49692;-60
2021/07/18 11:06:19;;;;;;;;;3.00;3.00;;;;;30.78;34.86;101530.56;4974137;28;65843;-61
2021/07/18 11:09:19;;;;;;;;;3.00;3.00;;;;;30.86;34.47;101525.78;4974901;28;45281;-59
2021/07/18 11:11:49;;;;;;;;;3.00;3.00;;;;;30.91;34.48;101523.16;4974974;28;45475;-61
2021/07/18 11:14:24;;;;;;;;;4.25;4.25;;;;;30.98;34.18;101512.94;4974729;28;46130;-61
2021/07/18 11:16:59;;;;;;;;;3.50;3.50;;;;;31.10;34.13;101515.53;4974656;28;45346;-61
2021/07/18 11:19:40;;;;;;;;;3.00;3.00;;;;;31.20;34.37;101504.84;4974513;28;45296;-61
2021/07/18 11:22:08;;;;;;;;;4.50;3.50;;;;;31.28;34.32;101513.59;4974817;28;45268;-61